Time;durP1;ratioP1;P1;durP2;ratioP2;P2;SDS_P1;SDS_P2;PMS_P1;PMS_P2;Temp;Humidity;BMP_temperature;BMP_pressure;BME280_temperature;BME280_humidity;BME280_pressure;Samples;Min_cycle;Max_cycle;Signal;HPM_P1;HPM_P2
2022/08/16 00:00:16;;;;;;;0.00;0.00;;;20.50;99.90;;;;;;5067563;28;20199;-69
2022/08/16 00:02:43;;;;;;;0.00;0.00;;;20.50;99.90;;;;;;5065371;28;20226;-69
2022/08/16 00:05:12;;;;;;;0.00;0.00;;;20.50;99.90;;;;;;5068225;28;20191;-69
2022/08/16 00:07:41;;;;;;;0.00;0.00;;;20.50;99.90;;;;;;5069804;28;20202;-69
2022/08/16 00:10:11;;;;;;;0.00;0.00;;;20.50;99.90;;;;;;5069233;28;20228;-68
2022/08/16 00:12:40;;;;;;;0.00;0.00;;;20.40;99.90;;;;;;5069096;28;20289;-68
2022/08/16 00:15:13;;;;;;;0.00;0.00;;;20.40;99.90;;;;;;5068993;28;20210;-68
2022/08/16 00:17:41;;;;;;;0.00;0.00;;;20.40;99.90;;;;;;5064401;28;20214;-68
2022/08/16 00:20:09;;;;;;;0.00;0.00;;;20.30;99.90;;;;;;5068019;28;20206;-68
2022/08/16 00:22:38;;;;;;;0.00;0.00;;;20.30;99.90;;;;;;5061685;28;20315;-68
2022/08/16 00:25:10;;;;;;;0.00;0.00;;;20.30;99.90;;;;;;5064825;28;20198;-68
2022/08/16 00:27:39;;;;;;;0.00;0.00;;;20.30;99.90;;;;;;5066585;28;20688;-68
2022/08/16 00:30:09;;;;;;;0.00;0.00;;;20.30;99.90;;;;;;5066052;28;20247;-68
2022/08/16 00:32:40;;;;;;;0.00;0.00;;;20.30;99.90;;;;;;5069395;28;20202;-69
2022/08/16 00:35:10;;;;;;;0.00;0.00;;;20.30;99.90;;;;;;5067156;28;20202;-68
2022/08/16 00:37:38;;;;;;;0.00;0.00;;;20.30;99.90;;;;;;5066541;28;20277;-68
2022/08/16 00:40:08;;;;;;;0.00;0.00;;;20.30;99.90;;;;;;5067189;28;20202;-70
2022/08/16 00:42:35;;;;;;;0.00;0.00;;;20.30;99.90;;;;;;5062595;28;20287;-68
2022/08/16 00:45:08;;;;;;;0.00;0.00;;;20.20;99.90;;;;;;5060366;28;20214;-69
2022/08/16 00:47:37;;;;;;;0.00;0.00;;;20.30;99.90;;;;;;5063892;28;20219;-68
2022/08/16 00:50:06;;;;;;;0.00;0.00;;;20.30;99.90;;;;;;5061083;28;20195;-68
2022/08/16 00:52:33;;;;;;;0.00;0.00;;;20.20;99.90;;;;;;5070694;28;20203;-69
2022/08/16 00:55:00;;;;;;;0.00;0.00;;;20.30;99.90;;;;;;5069340;28;20306;-68
2022/08/16 00:57:29;;;;;;;0.00;0.00;;;20.20;99.90;;;;;;5070253;28;20198;-68
2022/08/16 00:59:57;;;;;;;0.00;0.00;;;;;;;;;;5079074;28;20235;-68
2022/08/16 01:02:24;;;;;;;0.00;0.00;;;;;;;;;;5064437;28;20199;-69
2022/08/16 01:04:51;;;;;;;0.00;0.00;;;20.10;99.90;;;;;;5067465;28;20202;-68
2022/08/16 01:07:18;;;;;;;0.00;0.00;;;20.10;99.90;;;;;;5072102;28;20206;-69
2022/08/16 01:09:45;;;;;;;0.00;0.00;;;20.20;99.90;;;;;;5071362;28;20216;-68
2022/08/16 01:12:15;;;;;;;0.00;0.00;;;;;;;;;;5072248;28;20203;-68
2022/08/16 01:14:46;;;;;;;0.00;0.00;;;;;;;;;;5069538;28;20242;-68
2022/08/16 01:17:15;;;;;;;0.00;0.00;;;;;;;;;;5069791;28;20202;-68
2022/08/16 01:19:43;;;;;;;0.00;0.00;;;;;;;;;;5065675;28;20209;-68
2022/08/16 01:22:13;;;;;;;0.00;0.00;;;;;;;;;;5069637;28;20226;-69
2022/08/16 01:24:43;;;;;;;0.00;0.00;;;;;;;;;;5065652;28;20627;-69
2022/08/16 01:27:14;;;;;;;0.00;0.00;;;20.00;99.90;;;;;;5063541;28;20228;-68
2022/08/16 01:29:49;;;;;;;0.00;0.00;;;20.00;99.90;;;;;;5065399;28;20194;-70
2022/08/16 01:32:16;;;;;;;0.00;0.00;;;20.00;99.90;;;;;;5061614;28;20202;-69
2022/08/16 01:34:43;;;;;;;0.00;0.00;;;19.90;99.90;;;;;;5062550;28;20222;-69
2022/08/16 01:37:13;;;;;;;0.00;0.00;;;19.90;99.90;;;;;;5064683;28;20268;-69
2022/08/16 01:39:43;;;;;;;0.00;0.00;;;19.90;99.90;;;;;;5071441;28;20202;-69
2022/08/16 01:42:11;;;;;;;0.00;0.00;;;19.90;99.90;;;;;;5067739;28;20688;-69
2022/08/16 01:44:39;;;;;;;0.00;0.00;;;19.90;99.90;;;;;;5068880;28;20227;-68
2022/08/16 01:47:07;;;;;;;0.00;0.00;;;19.80;99.90;;;;;;5061358;28;20222;-69
2022/08/16 01:49:37;;;;;;;0.00;0.00;;;19.70;99.90;;;;;;5067666;28;20213;-68
2022/08/16 01:52:06;;;;;;;0.00;0.00;;;19.70;99.90;;;;;;5069016;28;20198;-69
2022/08/16 01:54:54;;;;;;;0.00;0.00;;;19.70;99.90;;;;;;5065072;28;20230;-68
2022/08/16 01:57:21;;;;;;;0.00;0.00;;;19.70;99.90;;;;;;5071276;28;20205;-68
2022/08/16 01:59:48;;;;;;;0.00;0.00;;;19.60;99.90;;;;;;5070078;28;20229;-69
2022/08/16 02:02:18;;;;;;;0.00;0.00;;;19.60;99.90;;;;;;5072485;28;20295;-68
2022/08/16 02:04:45;;;;;;;0.00;0.00;;;19.50;99.90;;;;;;5064082;28;20226;-69
2022/08/16 02:07:14;;;;;;;0.00;0.00;;;19.60;99.90;;;;;;5068171;28;20232;-68
2022/08/16 02:09:42;;;;;;;0.00;0.00;;;19.60;99.90;;;;;;5065664;28;20237;-68
2022/08/16 02:12:12;;;;;;;0.00;0.00;;;19.60;99.90;;;;;;5062296;28;20190;-69
2022/08/16 02:14:39;;;;;;;0.00;0.00;;;19.50;99.90;;;;;;5061489;28;20223;-68
2022/08/16 02:17:09;;;;;;;0.00;0.00;;;19.50;99.90;;;;;;5069444;28;20191;-67
2022/08/16 02:19:40;;;;;;;0.00;0.00;;;19.60;99.90;;;;;;5054776;28;20202;-68
2022/08/16 02:22:23;;;;;;;0.00;0.00;;;19.50;99.90;;;;;;5058165;28;20792;-69
2022/08/16 02:24:51;;;;;;;0.00;0.00;;;19.60;99.90;;;;;;5058021;28;20275;-70
2022/08/16 02:27:18;;;;;;;0.00;0.00;;;19.50;99.90;;;;;;5052781;28;20197;-69
2022/08/16 02:29:45;;;;;;;0.00;0.00;;;19.50;99.90;;;;;;5057823;28;20198;-69
2022/08/16 02:32:16;;;;;;;0.00;0.00;;;19.50;99.90;;;;;;5053485;28;20285;-69
2022/08/16 02:34:43;;;;;;;0.00;0.00;;;19.50;99.90;;;;;;5056943;28;20250;-69
2022/08/16 02:37:11;;;;;;;0.00;0.00;;;19.50;99.90;;;;;;5052314;28;20195;-69
2022/08/16 02:39:40;;;;;;;0.00;0.00;;;19.50;99.90;;;;;;5057215;28;20209;-69
2022/08/16 02:42:07;;;;;;;0.00;0.00;;;19.50;99.90;;;;;;5049819;28;20242;-69
2022/08/16 02:44:34;;;;;;;0.00;0.00;;;19.40;99.90;;;;;;5059307;28;20249;-69
2022/08/16 02:47:01;;;;;;;0.00;0.00;;;19.50;99.90;;;;;;5058255;28;20211;-69
2022/08/16 02:49:29;;;;;;;0.00;0.00;;;19.40;99.90;;;;;;5056973;28;20594;-70
2022/08/16 02:51:57;;;;;;;0.00;0.00;;;;;;;;;;5054633;28;20200;-69
2022/08/16 02:54:24;;;;;;;0.00;0.00;;;;;;;;;;5058958;22;20226;-82
2022/08/16 02:56:53;;;;;;;0.00;0.00;;;;;;;;;;5037264;28;20204;-82
2022/08/16 02:59:22;;;;;;;0.00;0.00;;;;;;;;;;5042699;28;20222;-82
2022/08/16 03:01:49;;;;;;;0.00;0.00;;;;;;;;;;5040506;28;20219;-83
2022/08/16 03:04:24;;;;;;;0.00;0.00;;;;;;;;;;5042877;28;20576;-82
2022/08/16 03:06:52;;;;;;;0.00;0.00;;;;;;;;;;5042545;28;20262;-82
2022/08/16 03:09:35;;;;;;;0.00;0.00;;;;;;;;;;5040093;28;20195;-82
2022/08/16 03:12:05;;;;;;;0.00;0.00;;;;;;;;;;5042888;28;20206;-82
2022/08/16 03:14:34;;;;;;;0.00;0.00;;;;;;;;;;5041944;28;20216;-82
2022/08/16 03:17:02;;;;;;;0.00;0.00;;;;;;;;;;5040554;28;20306;-82
2022/08/16 03:19:35;;;;;;;0.00;0.00;;;;;;;;;;5040978;28;20195;-82
2022/08/16 03:22:04;;;;;;;0.00;0.00;;;;;;;;;;5039135;28;20223;-82
2022/08/16 03:24:31;;;;;;;0.00;0.00;;;;;;;;;;5041867;28;20686;-82
2022/08/16 03:26:59;;;;;;;0.00;0.00;;;;;;;;;;5038887;28;20188;-82
2022/08/16 03:29:30;;;;;;;0.00;0.00;;;;;;;;;;5040950;28;20717;-82
2022/08/16 03:31:58;;;;;;;0.00;0.00;;;;;;;;;;5035700;28;20197;-82
2022/08/16 03:34:27;;;;;;;0.00;0.00;;;;;;;;;;5027671;28;20220;-81
2022/08/16 03:36:55;;;;;;;0.00;0.00;;;;;;;;;;5023874;28;20200;-82
2022/08/16 03:39:22;;;;;;;0.00;0.00;;;;;;;;;;5027384;28;20211;-82
2022/08/16 03:41:50;;;;;;;0.00;0.00;;;;;;;;;;5025217;28;20220;-82
2022/08/16 03:44:19;;;;;;;0.00;0.00;;;;;;;;;;5027724;28;20224;-82
2022/08/16 03:46:48;;;;;;;0.00;0.00;;;;;;;;;;5025303;28;20208;-82
2022/08/16 03:49:16;;;;;;;0.00;0.00;;;;;;;;;;5025536;28;20219;-82
2022/08/16 03:51:46;;;;;;;0.00;0.00;;;19.20;99.90;;;;;;5027414;28;20196;-82
2022/08/16 03:54:29;;;;;;;0.00;0.00;;;;;;;;;;5026889;28;20244;-82
2022/08/16 03:56:59;;;;;;;0.00;0.00;;;19.00;99.90;;;;;;5023721;28;20720;-82
2022/08/16 03:59:31;;;;;;;0.00;0.00;;;;;;;;;;5023107;28;20201;-82
2022/08/16 04:02:04;;;;;;;0.00;0.00;;;;;;;;;;5027873;28;20215;-82
2022/08/16 04:04:31;;;;;;;0.00;0.00;;;19.00;99.90;;;;;;5035340;28;20239;-82
2022/08/16 04:06:58;;;;;;;0.00;0.00;;;19.00;99.90;;;;;;5024456;28;20263;-82
2022/08/16 04:09:25;;;;;;;0.00;0.00;;;19.10;99.90;;;;;;5023959;28;20302;-82
2022/08/16 04:11:53;;;;;;;0.00;0.00;;;19.00;99.90;;;;;;5025068;28;20254;-82
2022/08/16 04:14:20;;;;;;;0.00;0.00;;;18.90;99.90;;;;;;5028102;28;20306;-82
2022/08/16 04:16:47;;;;;;;0.00;0.00;;;18.90;99.90;;;;;;5027119;28;20207;-82
2022/08/16 04:19:34;;;;;;;0.00;0.00;;;18.90;99.90;;;;;;5024977;28;20230;-82
2022/08/16 04:22:02;;;;;;;0.00;0.00;;;19.00;99.90;;;;;;5023051;28;20243;-82
2022/08/16 04:24:35;;;;;;;0.00;0.00;;;18.90;99.90;;;;;;5018975;28;20730;-81
2022/08/16 04:27:03;;;;;;;0.00;0.00;;;19.00;99.90;;;;;;5021265;28;20200;-82
2022/08/16 04:29:30;;;;;;;0.00;0.00;;;19.10;99.90;;;;;;5022666;28;20218;-82
2022/08/16 04:31:58;;;;;;;0.00;0.00;;;19.00;99.90;;;;;;5025214;28;20196;-82
2022/08/16 04:34:38;;;;;;;0.00;0.00;;;18.90;99.90;;;;;;5023894;28;20283;-82
2022/08/16 04:37:06;;;;;;;0.00;0.00;;;19.00;99.90;;;;;;5028899;28;20200;-82
2022/08/16 04:39:37;;;;;;;0.00;0.00;;;19.10;99.90;;;;;;5025645;28;20200;-82
2022/08/16 04:42:06;;;;;;;0.00;0.00;;;19.10;99.90;;;;;;5026732;28;20239;-82
2022/08/16 04:44:33;;;;;;;0.00;0.00;;;19.20;99.90;;;;;;5024325;28;20310;-82
2022/08/16 04:47:01;;;;;;;0.00;0.00;;;19.20;99.90;;;;;;5022887;28;20235;-82
2022/08/16 04:49:28;;;;;;;0.00;0.00;;;19.30;99.90;;;;;;5025770;28;20201;-82
2022/08/16 04:51:56;;;;;;;0.00;0.00;;;19.40;99.90;;;;;;5036237;28;20203;-82
2022/08/16 04:54:24;;;;;;;0.00;0.00;;;19.60;99.90;;;;;;5024451;28;20238;-82
2022/08/16 04:56:51;;;;;;;0.00;0.00;;;19.50;99.90;;;;;;5027984;28;20255;-81
2022/08/16 04:59:19;;;;;;;0.00;0.00;;;19.60;99.90;;;;;;5031630;28;20196;-81
2022/08/16 05:01:46;;;;;;;0.00;0.00;;;19.80;99.90;;;;;;5028540;28;20216;-81
2022/08/16 05:04:14;;;;;;;0.00;0.00;;;19.80;99.90;;;;;;5032182;28;20227;-81
2022/08/16 05:06:43;;;;;;;0.00;0.00;;;19.90;99.90;;;;;;5030267;28;20200;-81
2022/08/16 05:09:13;;;;;;;0.00;0.00;;;19.90;99.90;;;;;;5030465;28;20197;-81
2022/08/16 05:11:40;;;;;;;0.00;0.00;;;20.00;99.90;;;;;;5034120;28;20192;-81
2022/08/16 05:14:08;;;;;;;0.00;0.00;;;19.90;99.90;;;;;;5026292;28;20212;-81
2022/08/16 05:16:38;;;;;;;0.00;0.00;;;20.10;99.90;;;;;;5033245;28;20210;-81
2022/08/16 05:19:09;;;;;;;0.00;0.00;;;20.00;99.90;;;;;;5027094;28;20274;-82
2022/08/16 05:21:39;;;;;;;0.00;0.00;;;20.20;99.90;;;;;;5032254;28;20251;-81
2022/08/16 05:24:08;;;;;;;0.00;0.00;;;20.40;99.90;;;;;;5036238;28;20772;-81
2022/08/16 05:26:37;;;;;;;0.00;0.00;;;20.20;99.90;;;;;;5035326;28;20204;-81
2022/08/16 05:29:05;;;;;;;0.00;0.00;;;20.40;99.90;;;;;;5033276;28;20334;-82
2022/08/16 05:31:34;;;;;;;0.00;0.00;;;20.50;99.90;;;;;;5031131;28;20212;-82
2022/08/16 05:34:02;;;;;;;0.00;0.00;;;20.70;99.90;;;;;;5034027;28;20276;-82
2022/08/16 05:36:30;;;;;;;0.00;0.00;;;20.90;99.90;;;;;;5032783;28;20235;-82
2022/08/16 05:38:57;;;;;;;0.00;0.00;;;20.80;99.90;;;;;;5028212;28;20192;-82
2022/08/16 05:41:24;;;;;;;0.00;0.00;;;20.90;99.90;;;;;;5023459;28;20216;-82
2022/08/16 05:43:52;;;;;;;0.00;0.00;;;21.10;99.90;;;;;;5026794;28;20223;-81
2022/08/16 05:46:26;;;;;;;0.00;0.00;;;21.20;99.90;;;;;;5026853;28;20207;-81
2022/08/16 05:48:53;;;;;;;0.00;0.00;;;21.30;99.90;;;;;;5024395;28;20750;-81
2022/08/16 05:51:20;;;;;;;0.00;0.00;;;21.40;99.90;;;;;;5028775;28;20291;-82
2022/08/16 05:53:47;;;;;;;0.00;0.00;;;21.50;99.90;;;;;;5026582;28;20243;-81
2022/08/16 05:56:15;;;;;;;0.00;0.00;;;21.60;99.90;;;;;;5018161;28;20587;-81
2022/08/16 05:58:45;;;;;;;0.00;0.00;;;21.80;99.90;;;;;;5023481;28;20223;-86
2022/08/16 06:01:17;;;;;;;0.00;0.00;;;21.90;99.90;;;;;;5029425;28;20196;-84
2022/08/16 06:03:48;;;;;;;0.00;0.00;;;22.00;99.90;;;;;;5027330;28;20262;-82
2022/08/16 06:06:21;;;;;;;0.00;0.00;;;22.10;99.90;;;;;;5024749;28;20196;-82
2022/08/16 06:08:48;;;;;;;0.00;0.00;;;22.30;99.90;;;;;;5027358;28;20299;-82
2022/08/16 06:11:16;;;;;;;0.00;0.00;;;22.30;99.90;;;;;;5026392;28;20210;-81
2022/08/16 06:13:49;;;;;;;0.00;0.00;;;22.40;99.90;;;;;;5024897;28;20220;-83
2022/08/16 06:16:24;;;;;;;0.00;0.00;;;22.70;99.90;;;;;;5024596;28;20238;-82
2022/08/16 06:18:53;;;;;;;0.00;0.00;;;23.70;99.90;;;;;;5022748;28;20338;-83
2022/08/16 06:21:21;;;;;;;0.00;0.00;;;22.80;99.90;;;;;;5022609;28;20307;-82
2022/08/16 06:23:48;;;;;;;0.00;0.00;;;22.90;99.90;;;;;;5022324;28;20285;-82
2022/08/16 06:26:16;;;;;;;0.00;0.00;;;23.10;99.90;;;;;;5027804;28;20219;-83
2022/08/16 06:28:44;;;;;;;0.00;0.00;;;23.20;99.90;;;;;;5026049;28;20670;-83
2022/08/16 06:31:19;;;;;;;0.00;0.00;;;23.40;99.90;;;;;;5026176;28;20227;-84
2022/08/16 06:33:49;;;;;;;0.00;0.00;;;23.50;99.90;;;;;;5025153;28;20234;-83
2022/08/16 06:36:19;;;;;;;0.00;0.00;;;23.50;99.90;;;;;;5029266;28;20219;-84
2022/08/16 06:38:54;;;;;;;0.00;0.00;;;23.90;99.90;;;;;;5027765;28;20219;-84
2022/08/16 06:41:27;;;;;;;0.00;0.00;;;24.00;99.90;;;;;;5018542;28;20200;-83
2022/08/16 06:43:56;;;;;;;0.00;0.00;;;;;;;;;;5026010;28;20251;-83
2022/08/16 06:46:32;;;;;;;0.00;0.00;;;24.20;99.90;;;;;;5024069;28;20207;-84
2022/08/16 06:49:07;;;;;;;0.00;0.00;;;24.30;99.90;;;;;;5027360;28;20199;-84
2022/08/16 06:51:36;;;;;;;0.00;0.00;;;24.30;99.90;;;;;;5023299;28;20215;-81
2022/08/16 06:54:05;;;;;;;0.00;0.00;;;24.50;99.90;;;;;;5027247;28;20286;-83
2022/08/16 06:56:33;;;;;;;0.00;0.00;;;24.50;99.90;;;;;;5028191;28;20196;-83
2022/08/16 06:59:07;;;;;;;0.00;0.00;;;;;;;;;;5020458;28;20254;-81
2022/08/16 07:01:37;;;;;;;0.00;0.00;;;24.90;99.90;;;;;;5024668;28;20205;-83
2022/08/16 07:04:06;;;;;;;0.00;0.00;;;24.80;99.90;;;;;;5024040;28;20224;-84
2022/08/16 07:06:35;;;;;;;0.00;0.00;;;24.90;99.90;;;;;;5024429;28;20238;-84
2022/08/16 07:09:09;;;;;;;0.00;0.00;;;25.00;99.90;;;;;;5025857;28;20199;-84
2022/08/16 07:11:37;;;;;;;0.00;0.00;;;25.10;99.90;;;;;;5022747;28;20212;-83
2022/08/16 07:14:04;;;;;;;0.00;0.00;;;25.30;99.90;;;;;;5023744;28;20235;-83
2022/08/16 07:16:40;;;;;;;0.00;0.00;;;25.40;99.90;;;;;;5024416;28;20227;-81
2022/08/16 07:19:09;;;;;;;0.00;0.00;;;25.50;99.90;;;;;;5027306;28;20224;-82
2022/08/16 07:21:40;;;;;;;0.00;0.00;;;25.70;99.90;;;;;;5027429;28;20196;-81
2022/08/16 07:24:09;;;;;;;0.00;0.00;;;25.80;99.90;;;;;;5025606;28;20223;-80
2022/08/16 07:26:40;;;;;;;0.00;0.00;;;25.90;99.90;;;;;;5027229;28;20291;-80
2022/08/16 07:29:07;;;;;;;0.00;0.00;;;26.00;99.90;;;;;;5025695;28;20204;-81
2022/08/16 07:31:34;;;;;;;0.00;0.00;;;26.10;99.90;;;;;;5026901;28;20322;-82
2022/08/16 07:34:02;;;;;;;0.00;0.00;;;26.10;99.90;;;;;;5027047;28;20250;-80
2022/08/16 07:36:35;;;;;;;0.00;0.00;;;26.20;99.90;;;;;;5027388;28;20191;-80
2022/08/16 07:39:03;;;;;;;0.00;0.00;;;26.40;99.90;;;;;;5027513;28;20200;-80
2022/08/16 07:41:35;;;;;;;0.00;0.00;;;26.40;99.90;;;;;;5027568;28;20204;-80
2022/08/16 07:44:03;;;;;;;0.00;0.00;;;26.50;99.90;;;;;;5028551;28;20215;-80
2022/08/16 07:46:33;;;;;;;0.00;0.00;;;26.60;99.90;;;;;;5024644;28;20334;-80
2022/08/16 07:49:06;;;;;;;0.00;0.00;;;26.70;99.90;;;;;;5031057;28;20223;-81
2022/08/16 07:51:36;;;;;;;0.00;0.00;;;26.80;99.90;;;;;;5025902;28;20200;-80
2022/08/16 07:54:06;;;;;;;0.00;0.00;;;26.90;99.90;;;;;;5030822;28;20258;-80
2022/08/16 07:56:33;;;;;;;0.00;0.00;;;27.10;99.90;;;;;;5026006;28;20220;-80
2022/08/16 07:59:01;;;;;;;0.00;0.00;;;27.10;99.90;;;;;;5030548;28;20868;-80
2022/08/16 08:01:29;;;;;;;0.00;0.00;;;27.30;99.90;;;;;;5028490;28;20200;-81
2022/08/16 08:03:58;;;;;;;0.00;0.00;;;27.40;99.90;;;;;;5026701;28;20224;-81
2022/08/16 08:06:32;;;;;;;0.00;0.00;;;27.50;99.90;;;;;;5027362;28;20212;-80
2022/08/16 08:09:06;;;;;;;0.00;0.00;;;27.50;99.90;;;;;;5027493;28;20206;-79
2022/08/16 08:11:34;;;;;;;0.00;0.00;;;27.50;99.90;;;;;;5026979;28;20204;-80
2022/08/16 08:14:04;;;;;;;0.00;0.00;;;27.70;99.90;;;;;;5025586;28;20239;-80
2022/08/16 08:16:36;;;;;;;0.00;0.00;;;27.70;99.90;;;;;;5022545;28;20224;-81
2022/08/16 08:19:09;;;;;;;0.00;0.00;;;27.80;99.90;;;;;;5026668;28;20214;-81
2022/08/16 08:21:36;;;;;;;0.00;0.00;;;27.90;99.90;;;;;;5024528;28;20212;-80
2022/08/16 08:24:04;;;;;;;0.00;0.00;;;28.00;99.90;;;;;;5016881;28;20224;-81
2022/08/16 08:26:32;;;;;;;0.00;0.00;;;28.10;99.90;;;;;;5025790;28;20212;-79
2022/08/16 08:29:00;;;;;;;0.00;0.00;;;28.30;99.90;;;;;;5024684;28;20271;-80
2022/08/16 08:31:27;;;;;;;0.00;0.00;;;28.30;99.90;;;;;;5026595;28;20262;-81
2022/08/16 08:33:57;;;;;;;0.00;0.00;;;;;;;;;;5039708;28;20219;-81
2022/08/16 08:36:26;;;;;;;0.00;0.00;;;;;;;;;;5026423;28;20200;-81
2022/08/16 08:38:55;;;;;;;0.00;0.00;;;;;;;;;;5027518;28;20192;-80
2022/08/16 08:41:28;;;;;;;0.00;0.00;;;;;;;;;;5028733;28;20206;-81
2022/08/16 08:43:57;;;;;;;0.00;0.00;;;;;;;;;;5025146;28;20228;-82
2022/08/16 08:46:26;;;;;;;0.00;0.00;;;;;;;;;;5028044;28;20207;-82
2022/08/16 08:48:56;;;;;;;0.00;0.00;;;;;;;;;;5025184;28;20200;-81
2022/08/16 08:51:24;;;;;;;0.00;0.00;;;;;;;;;;5024391;28;20216;-82
2022/08/16 08:53:54;;;;;;;0.00;0.00;;;;;;;;;;5023981;28;20212;-81
2022/08/16 08:56:22;;;;;;;0.00;0.00;;;;;;;;;;5023369;28;20210;-80
2022/08/16 08:58:49;;;;;;;0.00;0.00;;;;;;;;;;5027840;28;20200;-82
2022/08/16 09:01:22;;;;;;;0.00;0.00;;;;;;;;;;5027204;28;20200;-81
2022/08/16 09:03:51;;;;;;;0.00;0.00;;;;;;;;;;5022767;28;20232;-82
2022/08/16 09:06:19;;;;;;;0.00;0.00;;;;;;;;;;5028451;28;20215;-81
2022/08/16 09:08:46;;;;;;;0.00;0.00;;;;;;;;;;5023868;22;20220;-74
2022/08/16 09:11:14;;;;;;;0.00;0.00;;;;;;;;;;5002927;28;20235;-74
2022/08/16 09:13:43;;;;;;;0.00;0.00;;;;;;;;;;5013367;28;20282;-74
2022/08/16 09:16:10;;;;;;;0.00;0.00;;;;;;;;;;5028304;28;20614;-74
2022/08/16 09:18:41;;;;;;;0.00;0.00;;;;;;;;;;5017350;28;20283;-73
2022/08/16 09:21:09;;;;;;;0.00;0.00;;;;;;;;;;5032187;28;20202;-74
2022/08/16 09:23:36;;;;;;;0.00;0.00;;;;;;;;;;5020916;28;20231;-74
2022/08/16 09:26:06;;;;;;;0.00;0.00;;;30.10;99.90;;;;;;5021678;28;20198;-74
2022/08/16 09:28:34;;;;;;;0.00;0.00;;;;;;;;;;5014181;28;20204;-73
2022/08/16 09:31:23;;;;;;;0.00;0.00;;;;;;;;;;5026652;28;20216;-74
2022/08/16 09:33:52;;;;;;;0.00;0.00;;;;;;;;;;5020710;28;20228;-74
2022/08/16 09:36:20;;;;;;;0.00;0.00;;;;;;;;;;5015318;28;20200;-74
2022/08/16 09:38:47;;;;;;;0.00;0.00;;;;;;;;;;5022413;28;20286;-74
2022/08/16 09:41:15;;;;;;;0.00;0.00;;;;;;;;;;5026703;28;20280;-74
2022/08/16 09:43:42;;;;;;;0.00;0.00;;;;;;;;;;5025137;28;20244;-74
2022/08/16 09:46:10;;;;;;;0.00;0.00;;;;;;;;;;5028708;28;20201;-74
2022/08/16 09:48:40;;;;;;;0.00;0.00;;;30.10;99.90;;;;;;5014287;28;20200;-74
2022/08/16 09:51:09;;;;;;;0.00;0.00;;;30.20;99.90;;;;;;5021514;28;20235;-74
2022/08/16 09:53:37;;;;;;;0.00;0.00;;;30.20;99.90;;;;;;5043679;28;20219;-74
2022/08/16 09:56:05;;;;;;;0.00;0.00;;;;;;;;;;5025102;28;20192;-74
2022/08/16 09:58:32;;;;;;;0.00;0.00;;;30.30;99.90;;;;;;5016868;28;20193;-74
2022/08/16 10:00:59;;;;;;;0.00;0.00;;;;;;;;;;5018786;28;20205;-74
2022/08/16 10:03:26;;;;;;;0.00;0.00;;;;;;;;;;5022067;28;20579;-74
2022/08/16 10:05:53;;;;;;;0.00;0.00;;;;;;;;;;5034059;28;20208;-74
2022/08/16 10:08:22;;;;;;;0.00;0.00;;;;;;;;;;5020933;28;20302;-74
2022/08/16 10:13:32;;;;;;;0.00;0.00;;;30.40;99.90;;;;;;5014815;28;20688;-74
2022/08/16 10:15:59;;;;;;;0.00;0.00;;;30.40;99.90;;;;;;5024198;28;20276;-74
2022/08/16 10:18:28;;;;;;;0.00;0.00;;;30.40;99.90;;;;;;5020736;28;20203;-74
2022/08/16 10:20:57;;;;;;;0.00;0.00;;;30.30;99.90;;;;;;5020459;28;20196;-74
2022/08/16 10:23:25;;;;;;;0.00;0.00;;;30.30;99.90;;;;;;5010506;28;20220;-73
2022/08/16 10:25:52;;;;;;;0.00;0.00;;;30.20;99.90;;;;;;5024743;28;20197;-74
2022/08/16 10:28:20;;;;;;;0.00;0.00;;;30.30;99.90;;;;;;5014519;28;20213;-74
2022/08/16 10:30:46;;;;;;;0.00;0.00;;;30.40;99.90;;;;;;5015191;28;20572;-74
2022/08/16 10:33:14;;;;;;;0.00;0.00;;;30.40;99.90;;;;;;5013702;28;20222;-74
2022/08/16 10:35:42;;;;;;;0.00;0.00;;;;;;;;;;5020906;28;20583;-73
2022/08/16 10:38:11;;;;;;;0.00;0.00;;;;;;;;;;5025846;28;20545;-74
2022/08/16 10:40:40;;;;;;;0.00;0.00;;;30.30;99.90;;;;;;5030334;28;20661;-74
2022/08/16 10:43:08;;;;;;;0.00;0.00;;;30.40;99.90;;;;;;5019328;28;20211;-74
2022/08/16 10:45:35;;;;;;;0.00;0.00;;;;;;;;;;5039727;28;20283;-74
2022/08/16 10:48:03;;;;;;;0.00;0.00;;;;;;;;;;5022359;28;20195;-74
2022/08/16 10:50:30;;;;;;;0.00;0.00;;;;;;;;;;5024047;28;20202;-74
2022/08/16 10:52:58;;;;;;;0.00;0.00;;;;;;;;;;5029735;28;20327;-74
2022/08/16 10:55:25;;;;;;;0.00;0.00;;;30.70;99.90;;;;;;5018298;28;20303;-74
2022/08/16 10:57:56;;;;;;;0.00;0.00;;;30.90;99.90;;;;;;5017575;28;20204;-74
2022/08/16 11:00:23;;;;;;;0.00;0.00;;;31.00;99.90;;;;;;5014268;28;20207;-74
2022/08/16 11:02:51;;;;;;;0.00;0.00;;;31.00;99.90;;;;;;5031198;28;20207;-74
2022/08/16 11:05:18;;;;;;;0.00;0.00;;;31.00;99.90;;;;;;5024236;28;20675;-73
2022/08/16 11:07:47;;;;;;;0.00;0.00;;;30.90;99.90;;;;;;5040225;28;20209;-74
2022/08/16 11:10:16;;;;;;;0.00;0.00;;;30.90;99.90;;;;;;5022734;28;20279;-74
2022/08/16 11:12:43;;;;;;;0.00;0.00;;;31.00;99.90;;;;;;5031434;28;20278;-74
2022/08/16 11:15:12;;;;;;;0.00;0.00;;;31.00;99.90;;;;;;5026748;28;20261;-74
2022/08/16 11:17:40;;;;;;;0.00;0.00;;;31.00;99.90;;;;;;5025166;28;20207;-75
2022/08/16 11:20:16;;;;;;;0.00;0.00;;;31.10;99.90;;;;;;5017992;28;20231;-74
2022/08/16 11:22:43;;;;;;;0.00;0.00;;;31.10;99.90;;;;;;5028408;28;20657;-74
2022/08/16 11:25:15;;;;;;;0.00;0.00;;;31.20;99.90;;;;;;5029155;28;20281;-74
2022/08/16 11:27:43;;;;;;;0.00;0.00;;;;;;;;;;5023480;28;20240;-74
2022/08/16 11:30:13;;;;;;;0.00;0.00;;;;;;;;;;5023194;28;20204;-74
2022/08/16 11:32:43;;;;;;;0.00;0.00;;;;;;;;;;5040452;28;20207;-74
2022/08/16 11:35:11;;;;;;;0.00;0.00;;;;;;;;;;5018932;28;20204;-75
2022/08/16 11:37:38;;;;;;;0.00;0.00;;;;;;;;;;5024875;28;20799;-74
2022/08/16 11:40:08;;;;;;;0.00;0.00;;;;;;;;;;5035400;28;20225;-74
2022/08/16 11:42:35;;;;;;;0.00;0.00;;;;;;;;;;5025204;28;20258;-74
2022/08/16 11:45:02;;;;;;;0.00;0.00;;;;;;;;;;5026326;28;20230;-74
2022/08/16 11:47:31;;;;;;;0.00;0.00;;;;;;;;;;5025712;28;20200;-74
2022/08/16 11:49:59;;;;;;;0.00;0.00;;;;;;;;;;5030926;28;20200;-74
2022/08/16 11:52:26;;;;;;;0.00;0.00;;;;;;;;;;5030431;28;20294;-73
2022/08/16 11:54:53;;;;;;;0.00;0.00;;;;;;;;;;5019646;28;20219;-74
2022/08/16 11:57:21;;;;;;;0.00;0.00;;;;;;;;;;5021936;28;20200;-74
2022/08/16 11:59:48;;;;;;;0.00;0.00;;;;;;;;;;5021030;28;20209;-74
2022/08/16 12:02:16;;;;;;;0.00;0.00;;;;;;;;;;5025228;28;20216;-74
2022/08/16 12:04:45;;;;;;;0.00;0.00;;;;;;;;;;5026011;28;20650;-74
2022/08/16 12:07:12;;;;;;;0.00;0.00;;;;;;;;;;5020298;28;20295;-74
2022/08/16 12:09:40;;;;;;;0.00;0.00;;;;;;;;;;5020059;28;20298;-74
2022/08/16 12:12:08;;;;;;;0.00;0.00;;;;;;;;;;5020623;28;20200;-74
2022/08/16 12:14:35;;;;;;;0.00;0.00;;;;;;;;;;5025459;28;20251;-74
2022/08/16 12:17:03;;;;;;;0.00;0.00;;;;;;;;;;5028764;28;20223;-74
2022/08/16 12:19:31;;;;;;;0.00;0.00;;;;;;;;;;5012474;28;20231;-74
2022/08/16 12:21:59;;;;;;;0.00;0.00;;;;;;;;;;5024334;28;20850;-74
2022/08/16 12:24:27;;;;;;;0.00;0.00;;;;;;;;;;5021296;28;20228;-74
2022/08/16 12:26:55;;;;;;;0.00;0.00;;;;;;;;;;5025652;28;20207;-74
2022/08/16 12:29:22;;;;;;;0.00;0.00;;;;;;;;;;5012784;28;20700;-74
2022/08/16 12:31:50;;;;;;;0.00;0.00;;;;;;;;;;5017639;28;20246;-74
2022/08/16 12:34:17;;;;;;;0.00;0.00;;;;;;;;;;5019892;28;20223;-74
2022/08/16 12:36:45;;;;;;;0.00;0.00;;;;;;;;;;5033768;28;20200;-74
2022/08/16 12:39:16;;;;;;;0.00;0.00;;;;;;;;;;5021242;28;20200;-74
2022/08/16 12:41:45;;;;;;;0.00;0.00;;;;;;;;;;5021177;28;20219;-74
2022/08/16 12:44:13;;;;;;;0.00;0.00;;;;;;;;;;5028822;28;20227;-74
2022/08/16 12:46:41;;;;;;;0.00;0.00;;;30.30;99.90;;;;;;5017038;28;20196;-74
2022/08/16 12:49:10;;;;;;;0.00;0.00;;;30.30;99.90;;;;;;5031047;28;20265;-74
2022/08/16 12:51:39;;;;;;;0.00;0.00;;;30.40;99.90;;;;;;5017637;28;20204;-74
2022/08/16 12:54:08;;;;;;;0.00;0.00;;;30.60;99.90;;;;;;5025771;28;20229;-74
2022/08/16 12:56:38;;;;;;;0.00;0.00;;;30.80;99.90;;;;;;5018201;28;20215;-74
2022/08/16 12:59:10;;;;;;;0.00;0.00;;;30.90;99.90;;;;;;5024214;28;20355;-74
2022/08/16 13:01:40;;;;;;;0.00;0.00;;;30.90;99.90;;;;;;5022987;28;20207;-74
2022/08/16 13:04:08;;;;;;;0.00;0.00;;;31.00;99.90;;;;;;5020472;28;20215;-74
2022/08/16 13:06:37;;;;;;;0.00;0.00;;;31.00;99.90;;;;;;5025726;28;20212;-74
2022/08/16 13:09:18;;;;;;;0.00;0.00;;;31.00;99.90;;;;;;5018022;28;20216;-74
2022/08/16 13:11:58;;;;;;;0.00;0.00;;;31.00;99.90;;;;;;5026127;28;20208;-74
2022/08/16 13:14:28;;;;;;;0.00;0.00;;;30.90;99.90;;;;;;5015603;28;20274;-75
2022/08/16 13:16:54;;;;;;;0.00;0.00;;;30.90;99.90;;;;;;5021758;28;20290;-74
2022/08/16 13:19:21;;;;;;;0.00;0.00;;;30.80;99.90;;;;;;5012336;28;20212;-74
2022/08/16 13:21:49;;;;;;;0.00;0.00;;;30.70;99.90;;;;;;5024633;28;20200;-74
2022/08/16 13:24:16;;;;;;;0.00;0.00;;;30.70;99.90;;;;;;5021425;28;20295;-74
2022/08/16 13:26:43;;;;;;;0.00;0.00;;;30.70;99.90;;;;;;5018497;28;20204;-74
2022/08/16 13:29:11;;;;;;;0.00;0.00;;;30.60;99.90;;;;;;5035443;28;20204;-74
2022/08/16 13:31:38;;;;;;;0.00;0.00;;;30.70;99.90;;;;;;5021414;28;20304;-72
2022/08/16 13:34:05;;;;;;;0.00;0.00;;;30.70;99.90;;;;;;5021253;28;20211;-72